Time;durP1;ratioP1;P1;durP2;ratioP2;P2;SDS_P1;SDS_P2;PMS_P1;PMS_P2;Temp;Humidity;BMP_temperature;BMP_pressure;BME280_temperature;BME280_humidity;BME280_pressure;Samples;Min_cycle;Max_cycle;Signal;HPM_P1;HPM_P2
2022/09/29 00:00:50;;;;;;;8.65;4.82;;;;;;;-145.01;100.00;64805.59;5048288;28;20548;-55
2022/09/29 00:03:16;;;;;;;10.43;4.72;;;;;;;-145.01;100.00;64805.59;5047305;28;20032;-55
2022/09/29 00:05:52;;;;;;;7.80;5.40;;;;;;;-145.01;100.00;64805.59;5053788;28;20024;-55
2022/09/29 00:08:18;;;;;;;8.25;5.30;;;;;;;-145.01;100.00;64805.59;5053448;28;20032;-55
2022/09/29 00:10:44;;;;;;;8.02;5.30;;;;;;;-145.01;100.00;64805.59;5059864;28;20074;-55
2022/09/29 00:13:09;;;;;;;9.65;4.80;;;;;;;-145.01;100.00;64805.59;5056785;28;20063;-55
2022/09/29 00:15:35;;;;;;;9.15;4.90;;;;;;;-145.01;100.00;64805.59;5056793;28;20025;-54
2022/09/29 00:18:00;;;;;;;7.47;4.75;;;;;;;-145.01;100.00;64805.59;5048479;28;20013;-55
2022/09/29 00:20:26;;;;;;;7.80;5.60;;;;;;;-145.01;100.00;64805.59;5048204;28;20055;-55
2022/09/29 00:22:51;;;;;;;10.35;5.00;;;;;;;-145.01;100.00;64805.59;5053379;28;20028;-53
2022/09/29 00:25:17;;;;;;;7.93;5.38;;;;;;;-145.01;100.00;64805.59;5049059;28;20458;-54
2022/09/29 00:27:44;;;;;;;10.32;4.90;;;;;;;-145.01;100.00;64805.59;5086540;28;20025;-55
2022/09/29 00:30:10;;;;;;;7.30;4.70;;;;;;;-145.01;100.00;64805.59;5051436;28;20471;-53
2022/09/29 00:32:36;;;;;;;8.43;5.30;;;;;;;-145.01;100.00;64805.59;5054266;28;20028;-54
2022/09/29 00:35:01;;;;;;;8.20;5.32;;;;;;;-145.01;100.00;64805.59;5056714;28;20024;-55
2022/09/29 00:37:27;;;;;;;9.55;5.35;;;;;;;-145.01;100.00;64805.59;5052330;28;20025;-55
2022/09/29 00:39:52;;;;;;;12.18;5.80;;;;;;;-145.01;100.00;64805.59;5058435;28;20487;-56
2022/09/29 00:42:18;;;;;;;8.18;5.40;;;;;;;-145.01;100.00;64805.59;5058223;28;20510;-54
2022/09/29 00:45:10;;;;;;;10.40;5.35;;;;;;;-145.01;100.00;64805.59;5051828;28;20094;-55
2022/09/29 00:47:36;;;;;;;9.27;5.40;;;;;;;-145.01;100.00;64805.59;5051796;28;20059;-54
2022/09/29 00:50:23;;;;;;;7.68;5.40;;;;;;;-145.01;100.00;64805.59;5053607;28;20029;-55
2022/09/29 00:53:00;;;;;;;15.18;6.00;;;;;;;-145.01;100.00;64805.59;5044906;28;20062;-55
2022/09/29 00:55:30;;;;;;;8.43;6.03;;;;;;;-145.01;100.00;64805.59;5056397;28;20036;-56
2022/09/29 00:58:06;;;;;;;11.48;5.35;;;;;;;-145.01;100.00;64805.59;5058887;28;20134;-54
2022/09/29 01:00:32;;;;;;;11.70;5.85;;;;;;;-145.01;100.00;64805.59;5057352;28;20036;-55
2022/09/29 01:03:00;;;;;;;11.23;5.95;;;;;;;-145.01;100.00;64805.59;5052209;28;20028;-54
2022/09/29 01:05:29;;;;;;;10.32;5.72;;;;;;;-145.01;100.00;64805.59;5058796;28;20047;-54
2022/09/29 01:07:54;;;;;;;9.90;5.93;;;;;;;-145.01;100.00;64805.59;5043867;28;20055;-53
2022/09/29 01:10:20;;;;;;;10.32;6.20;;;;;;;-145.01;100.00;64805.59;5053934;28;20094;-55
2022/09/29 01:12:46;;;;;;;12.40;6.57;;;;;;;-145.01;100.00;64805.59;5063362;28;20706;-54
2022/09/29 01:15:12;;;;;;;11.57;6.65;;;;;;;-145.01;100.00;64805.59;5033510;28;20450;-51
2022/09/29 01:17:38;;;;;;;11.32;6.32;;;;;;;-145.01;100.00;64805.59;5061120;28;20066;-54
2022/09/29 01:20:03;;;;;;;9.93;5.97;;;;;;;-145.01;100.00;64805.59;5057467;28;20025;-54
2022/09/29 01:22:54;;;;;;;11.40;6.15;;;;;;;-145.01;100.00;64805.59;5055936;28;20035;-52
2022/09/29 01:25:50;;;;;;;17.27;6.65;;;;;;;-145.01;100.00;64805.59;5055386;28;20479;-53
2022/09/29 01:28:21;;;;;;;12.52;5.85;;;;;;;-145.01;100.00;64805.59;5050780;28;20113;-54
2022/09/29 01:30:59;;;;;;;10.27;5.95;;;;;;;-145.01;100.00;64805.59;5064542;28;20459;-53
2022/09/29 01:33:40;;;;;;;10.93;5.95;;;;;;;-145.01;100.00;64805.59;5040192;28;20388;-53
2022/09/29 01:36:11;;;;;;;;;;;;;;;-145.01;100.00;64805.59;5055660;28;20025;-52
2022/09/29 01:39:01;;;;;;;8.95;5.97;;;;;;;-145.01;100.00;64805.59;5054076;28;20384;-52
2022/09/29 01:41:39;;;;;;;9.45;6.13;;;;;;;-145.01;100.00;64805.59;5054289;28;20029;-55
2022/09/29 01:44:25;;;;;;;9.73;6.20;;;;;;;-145.01;100.00;64805.59;5055296;28;20126;-53
2022/09/29 01:47:00;;;;;;;8.32;5.72;;;;;;;-145.01;100.00;64805.59;5050819;28;20487;-54
2022/09/29 01:49:28;;;;;;;11.52;6.40;;;;;;;-145.01;100.00;64805.59;5057555;28;20391;-53
2022/09/29 01:52:03;;;;;;;11.35;5.95;;;;;;;-145.01;100.00;64805.59;5039690;28;20486;-55
2022/09/29 01:54:45;;;;;;;13.45;6.50;;;;;;;-145.01;100.00;64805.59;5046972;28;20025;-56
2022/09/29 01:57:33;;;;;;;9.57;6.00;;;;;;;-145.01;100.00;64805.59;5054780;28;20059;-55
2022/09/29 02:00:11;;;;;;;8.60;5.90;;;;;;;-145.01;100.00;64805.59;5054394;28;20033;-56
2022/09/29 02:03:33;;;;;;;14.80;6.30;;;;;;;-145.01;100.00;64805.59;5050788;28;20631;-55
2022/09/29 02:06:01;;;;;;;9.10;6.22;;;;;;;-145.01;100.00;64805.59;4990343;28;20708;-53
2022/09/29 02:08:39;;;;;;;14.30;6.40;;;;;;;-145.01;100.00;64805.59;5079140;28;20045;-54
2022/09/29 02:11:09;;;;;;;11.80;6.95;;;;;;;-145.01;100.00;64805.59;5053119;28;20036;-55
2022/09/29 02:13:39;;;;;;;13.73;6.82;;;;;;;-145.01;100.00;64805.59;5050805;28;20021;-56
2022/09/29 02:16:07;;;;;;;11.88;6.97;;;;;;;-145.01;100.00;64805.59;5038278;28;20027;-55
2022/09/29 02:18:36;;;;;;;9.55;5.82;;;;;;;-145.01;100.00;64805.59;5059251;28;20430;-55
2022/09/29 02:21:02;;;;;;;10.68;6.68;;;;;;;-145.01;100.00;64805.59;5054512;28;20033;-52
2022/09/29 02:23:27;;;;;;;13.63;6.63;;;;;;;-145.01;100.00;64805.59;5054417;28;20039;-55
2022/09/29 02:25:52;;;;;;;12.88;6.85;;;;;;;-145.01;100.00;64805.59;5053410;28;20018;-55
2022/09/29 02:28:18;;;;;;;11.35;6.93;;;;;;;-145.01;100.00;64805.59;5048888;28;20410;-55
2022/09/29 02:30:46;;;;;;;10.13;6.15;;;;;;;-145.01;100.00;64805.59;5048905;28;20861;-55
2022/09/29 02:33:22;;;;;;;9.98;6.53;;;;;;;-145.01;100.00;64805.59;5048978;28;20029;-56
2022/09/29 02:36:10;;;;;;;11.35;6.68;;;;;;;-145.01;100.00;64805.59;5054257;28;20029;-54
2022/09/29 02:38:57;;;;;;;9.88;6.60;;;;;;;-145.01;100.00;64805.59;5053054;28;20036;-54
2022/09/29 02:41:23;;;;;;;11.88;6.10;;;;;;;-145.01;100.00;64805.59;5057318;28;20037;-53
2022/09/29 02:44:07;;;;;;;9.38;6.05;;;;;;;-145.01;100.00;64805.59;5053111;28;20039;-55
2022/09/29 02:46:41;;;;;;;18.10;7.28;;;;;;;-145.01;100.00;64805.59;5048575;28;20104;-54
2022/09/29 02:49:19;;;;;;;11.23;6.68;;;;;;;-145.01;100.00;64805.59;5032215;28;20480;-54
2022/09/29 02:51:52;;;;;;;14.70;7.28;;;;;;;-145.01;100.00;64805.59;5055854;28;20671;-55
2022/09/29 02:54:41;;;;;;;13.05;7.25;;;;;;;-145.01;100.00;64805.59;5036929;28;20036;-56
2022/09/29 02:57:23;;;;;;;18.92;8.13;;;;;;;-145.01;100.00;64805.59;5047433;28;20033;-56
2022/09/29 02:59:59;;;;;;;19.35;7.80;;;;;;;-145.01;100.00;64805.59;5051145;28;20120;-55
2022/09/29 03:02:27;;;;;;;16.77;7.80;;;;;;;-145.01;100.00;64805.59;5056363;28;20166;-53
2022/09/29 03:04:53;;;;;;;13.32;7.50;;;;;;;-145.01;100.00;64805.59;5049757;28;20387;-52
2022/09/29 03:07:19;;;;;;;12.48;8.27;;;;;;;-145.01;100.00;64805.59;5053669;28;20033;-55
2022/09/29 03:09:45;;;;;;;17.60;9.55;;;;;;;-145.01;100.00;64805.59;5050472;28;20483;-55
2022/09/29 03:12:11;;;;;;;16.38;8.88;;;;;;;-145.01;100.00;64805.59;5060128;28;20029;-55
2022/09/29 03:14:36;;;;;;;23.38;8.63;;;;;;;-145.01;100.00;64805.59;5049981;28;20024;-53
2022/09/29 03:17:02;;;;;;;38.53;8.20;;;;;;;-145.01;100.00;64805.59;5047345;28;20032;-55
2022/09/29 03:19:28;;;;;;;56.72;7.70;;;;;;;-145.01;100.00;64805.59;5047474;28;20036;-55
2022/09/29 03:21:53;;;;;;;20.25;7.25;;;;;;;-145.01;100.00;64805.59;5052123;28;20021;-53
2022/09/29 03:24:18;;;;;;;74.93;9.25;;;;;;;-145.01;100.00;64805.59;5048677;28;20025;-54
2022/09/29 03:26:44;;;;;;;44.88;7.72;;;;;;;-145.01;100.00;64805.59;5059483;28;20040;-53
2022/09/29 03:29:09;;;;;;;42.55;7.20;;;;;;;-145.01;100.00;64805.59;5048846;28;20029;-51
2022/09/29 03:31:35;;;;;;;43.78;8.00;;;;;;;-145.01;100.00;64805.59;5048061;28;20513;-52
2022/09/29 03:34:00;;;;;;;52.35;7.65;;;;;;;-145.01;100.00;64805.59;5052027;28;20036;-55
2022/09/29 03:36:26;;;;;;;36.63;7.43;;;;;;;-145.01;100.00;64805.59;5051399;28;20028;-55
2022/09/29 03:38:51;;;;;;;36.83;8.70;;;;;;;-145.01;100.00;64805.59;5053533;28;20047;-54
2022/09/29 03:41:17;;;;;;;16.10;7.55;;;;;;;-145.01;100.00;64805.59;5054010;28;20029;-55
2022/09/29 03:43:42;;;;;;;13.95;8.27;;;;;;;-145.01;100.00;64805.59;5059856;28;20032;-53
2022/09/29 03:46:08;;;;;;;13.30;7.55;;;;;;;-145.01;100.00;64805.59;5053109;28;20054;-54
2022/09/29 03:48:34;;;;;;;13.30;8.20;;;;;;;-145.01;100.00;64805.59;5051636;28;20875;-54
2022/09/29 03:50:59;;;;;;;14.52;8.57;;;;;;;-145.01;100.00;64805.59;5049003;28;20135;-52
2022/09/29 03:53:25;;;;;;;17.80;7.15;;;;;;;-145.01;100.00;64805.59;5051310;28;20021;-55
2022/09/29 03:55:50;;;;;;;13.63;7.55;;;;;;;-145.01;100.00;64805.59;5049400;28;20024;-55
2022/09/29 03:58:16;;;;;;;23.70;7.35;;;;;;;-145.01;100.00;64805.59;5049226;28;20052;-55
2022/09/29 04:00:41;;;;;;;12.88;7.68;;;;;;;-145.01;100.00;64805.59;5051092;28;20057;-53
2022/09/29 04:03:07;;;;;;;11.38;7.40;;;;;;;-145.01;100.00;64805.59;5056331;28;20074;-55
2022/09/29 04:05:41;;;;;;;11.88;6.68;;;;;;;-145.01;100.00;64805.59;5050184;28;20049;-53
2022/09/29 04:08:07;;;;;;;20.73;6.72;;;;;;;-145.01;100.00;64805.59;5049664;28;20090;-54
2022/09/29 04:10:34;;;;;;;14.30;7.47;;;;;;;-145.01;100.00;64805.59;5053072;28;20037;-53
2022/09/29 04:12:59;;;;;;;16.02;8.32;;;;;;;-145.01;100.00;64805.59;5053152;28;20653;-55
2022/09/29 04:15:25;;;;;;;17.92;8.35;;;;;;;-145.01;100.00;64805.59;5052422;28;20037;-55
2022/09/29 04:17:50;;;;;;;17.48;8.35;;;;;;;-145.01;100.00;64805.59;5054760;28;20025;-54
2022/09/29 04:20:16;;;;;;;13.73;8.02;;;;;;;-145.01;100.00;64805.59;5062169;28;20032;-53
2022/09/29 04:22:41;;;;;;;13.07;8.32;;;;;;;-145.01;100.00;64805.59;5056174;28;20025;-55
2022/09/29 04:25:07;;;;;;;12.32;7.72;;;;;;;-145.01;100.00;64805.59;5066570;28;20028;-53
2022/09/29 04:27:32;;;;;;;14.73;8.27;;;;;;;-145.01;100.00;64805.59;5052921;28;20029;-55
2022/09/29 04:29:58;;;;;;;13.88;7.70;;;;;;;-145.01;100.00;64805.59;5051002;28;20032;-53
2022/09/29 04:32:23;;;;;;;11.98;8.05;;;;;;;-145.01;100.00;64805.59;5058869;28;20459;-51
2022/09/29 04:34:49;;;;;;;12.30;7.97;;;;;;;-145.01;100.00;64805.59;5053588;28;20053;-53
2022/09/29 04:37:14;;;;;;;17.00;8.27;;;;;;;-145.01;100.00;64805.59;5056899;28;20037;-53
2022/09/29 04:39:40;;;;;;;22.50;10.15;;;;;;;-145.01;100.00;64805.59;5058178;28;20036;-53
2022/09/29 04:42:05;;;;;;;48.10;9.45;;;;;;;-145.01;100.00;64805.59;5060068;28;20029;-53
2022/09/29 04:44:31;;;;;;;30.65;9.02;;;;;;;-145.01;100.00;64805.59;5053733;28;20032;-55
2022/09/29 04:46:56;;;;;;;38.10;9.57;;;;;;;-145.01;100.00;64805.59;5051661;28;20032;-53
2022/09/29 04:49:21;;;;;;;32.50;9.02;;;;;;;-145.01;100.00;64805.59;5055507;28;20028;-54
2022/09/29 04:51:47;;;;;;;41.45;9.40;;;;;;;-145.01;100.00;64805.59;5050885;28;20032;-54
2022/09/29 04:54:12;;;;;;;93.10;10.38;;;;;;;-145.01;100.00;64805.59;5063295;28;20028;-54
2022/09/29 04:56:38;;;;;;;124.55;11.55;;;;;;;-145.01;100.00;64805.59;5057099;28;20029;-55
2022/09/29 04:59:03;;;;;;;72.93;10.15;;;;;;;-145.01;100.00;64805.59;5051003;28;20400;-54
2022/09/29 05:01:29;;;;;;;115.63;11.05;;;;;;;-145.01;100.00;64805.59;5050761;28;20033;-53
2022/09/29 05:03:54;;;;;;;212.88;12.43;;;;;;;-145.01;100.00;64805.59;5050330;28;20032;-53
2022/09/29 05:06:20;;;;;;;80.50;11.10;;;;;;;-145.01;100.00;64805.59;5051281;28;20041;-54
2022/09/29 05:08:45;;;;;;;62.53;12.02;;;;;;;-145.01;100.00;64805.59;5059382;28;20391;-53
2022/09/29 05:11:11;;;;;;;105.97;12.48;;;;;;;-145.01;100.00;64805.59;5055930;28;20070;-53
2022/09/29 05:13:36;;;;;;;113.53;12.93;;;;;;;-145.01;100.00;64805.59;5051984;28;20029;-53
2022/09/29 05:16:02;;;;;;;94.15;11.70;;;;;;;-145.01;100.00;64805.59;5053311;28;20032;-53
2022/09/29 05:18:27;;;;;;;229.00;14.60;;;;;;;-145.01;100.00;64805.59;5056759;28;20360;-54
2022/09/29 05:20:53;;;;;;;150.00;11.65;;;;;;;-145.01;100.00;64805.59;5051472;28;20025;-53
2022/09/29 05:23:18;;;;;;;74.85;11.15;;;;;;;-145.01;100.00;64805.59;5056539;28;20017;-53
2022/09/29 05:25:44;;;;;;;91.55;11.90;;;;;;;-145.01;100.00;64805.59;5057831;28;20441;-54
2022/09/29 05:28:10;;;;;;;76.32;11.63;;;;;;;-145.01;100.00;64805.59;5058948;28;20052;-53
2022/09/29 05:30:37;;;;;;;73.95;11.32;;;;;;;-145.01;100.00;64805.59;5057001;28;20028;-54
2022/09/29 05:33:02;;;;;;;42.50;11.63;;;;;;;-145.01;100.00;64805.59;5050356;28;20555;-53
2022/09/29 05:35:28;;;;;;;42.63;11.75;;;;;;;-145.01;100.00;64805.59;5056043;28;20013;-55
2022/09/29 05:37:53;;;;;;;42.47;8.70;;;;;;;-145.01;100.00;64805.59;5051586;28;20028;-54
2022/09/29 05:40:19;;;;;;;41.63;8.13;;;;;;;-145.01;100.00;64805.59;5086978;28;20062;-54
2022/09/29 05:42:45;;;;;;;33.28;7.55;;;;;;;-145.01;100.00;64805.59;5053569;28;20029;-55
2022/09/29 05:45:10;;;;;;;51.25;7.35;;;;;;;-145.01;100.00;64805.59;5055717;28;20063;-54
2022/09/29 05:47:39;;;;;;;25.27;7.43;;;;;;;-145.01;100.00;64805.59;5050129;28;20032;-54
2022/09/29 05:50:05;;;;;;;14.75;7.55;;;;;;;-145.01;100.00;64805.59;5054005;28;20969;-54
2022/09/29 05:52:31;;;;;;;24.00;6.97;;;;;;;-145.01;100.00;64805.59;5066077;28;20024;-55
2022/09/29 05:54:56;;;;;;;22.80;7.60;;;;;;;-145.01;100.00;64805.59;5056303;28;20025;-54
2022/09/29 05:57:22;;;;;;;27.98;7.35;;;;;;;-145.01;100.00;64805.59;5056548;28;20399;-53
2022/09/29 05:59:47;;;;;;;22.40;7.30;;;;;;;-145.01;100.00;64805.59;5049638;28;20100;-52
2022/09/29 06:02:13;;;;;;;24.77;7.60;;;;;;;-145.01;100.00;64805.59;5056947;28;20445;-54
2022/09/29 06:04:38;;;;;;;17.27;7.68;;;;;;;-145.01;100.00;64805.59;5057663;28;20040;-54
2022/09/29 06:07:03;;;;;;;13.85;7.35;;;;;;;-145.01;100.00;64805.59;5054173;28;20028;-53
2022/09/29 06:09:29;;;;;;;60.45;7.63;;;;;;;-145.01;100.00;64805.59;5059151;28;20040;-54
2022/09/29 06:11:54;;;;;;;35.17;7.35;;;;;;;-145.01;100.00;64805.59;5059755;28;20029;-55
2022/09/29 06:14:20;;;;;;;46.25;8.93;;;;;;;-145.01;100.00;64805.59;5050885;28;20037;-54
2022/09/29 06:16:45;;;;;;;58.03;9.63;;;;;;;-145.01;100.00;64805.59;5053865;28;20033;-54
2022/09/29 06:19:12;;;;;;;93.10;9.23;;;;;;;-145.01;100.00;64805.59;5050760;28;20118;-55
2022/09/29 06:21:38;;;;;;;51.08;9.65;;;;;;;-145.01;100.00;64805.59;5059164;28;20637;-51
2022/09/29 06:24:06;;;;;;;51.42;9.63;;;;;;;-145.01;100.00;64805.59;5054657;28;20021;-55
2022/09/29 06:26:31;;;;;;;29.20;8.63;;;;;;;-145.01;100.00;64805.59;5055153;28;20108;-55
2022/09/29 06:28:57;;;;;;;24.75;7.18;;;;;;;-145.01;100.00;64805.59;5049170;28;20078;-54
2022/09/29 06:31:24;;;;;;;19.95;7.65;;;;;;;-145.01;100.00;64805.59;5053693;28;20404;-53
2022/09/29 06:33:50;;;;;;;50.47;15.98;;;;;;;-145.01;100.00;64805.59;5052130;28;20021;-55
2022/09/29 06:39:28;;;;;;;19.85;8.50;;;;;;;-145.01;100.00;64805.59;5050477;28;20052;-55
2022/09/29 06:41:55;;;;;;;61.17;8.68;;;;;;;-145.01;100.00;64805.59;5050332;28;20627;-54
2022/09/29 06:44:27;;;;;;;22.30;7.35;;;;;;;-145.01;100.00;64805.59;5053685;28;20471;-54
2022/09/29 06:46:52;;;;;;;13.15;7.00;;;;;;;-145.01;100.00;64805.59;5058423;28;20048;-55
2022/09/29 06:49:18;;;;;;;12.15;6.30;;;;;;;-145.01;100.00;64805.59;5055659;28;20452;-55
2022/09/29 06:51:44;;;;;;;8.00;5.88;;;;;;;-145.01;100.00;64805.59;5057162;28;20020;-56
2022/09/29 06:54:13;;;;;;;7.88;4.63;;;;;;;-145.01;100.00;64805.59;5055334;28;20448;-54
2022/09/29 06:56:38;;;;;;;20.90;4.40;;;;;;;-145.01;100.00;64805.59;5054431;28;20520;-55
2022/09/29 06:59:04;;;;;;;22.40;5.05;;;;;;;-145.01;100.00;64805.59;5049978;28;20087;-55
2022/09/29 07:01:29;;;;;;;56.03;5.05;;;;;;;-145.01;100.00;64805.59;5086140;28;20348;-55
2022/09/29 07:03:55;;;;;;;118.28;5.80;;;;;;;-145.01;100.00;64805.59;5082101;28;20021;-54
2022/09/29 07:06:21;;;;;;;75.05;6.10;;;;;;;-145.01;100.00;64805.59;5054195;28;20069;-56
2022/09/29 07:08:46;;;;;;;94.55;6.63;;;;;;;-145.01;100.00;64805.59;5054767;28;20032;-56
2022/09/29 07:11:12;;;;;;;70.22;6.10;;;;;;;-145.01;100.00;64805.59;5053584;28;20103;-55
2022/09/29 07:13:37;;;;;;;10.77;4.82;;;;;;;-145.01;100.00;64805.59;5051279;28;20028;-55
2022/09/29 07:16:06;;;;;;;9.95;4.72;;;;;;;-145.01;100.00;64805.59;5049513;28;20104;-54
2022/09/29 07:18:36;;;;;;;20.23;4.35;;;;;;;-145.01;100.00;64805.59;5048421;28;20097;-55
2022/09/29 07:21:03;;;;;;;24.42;5.85;;;;;;;-145.01;100.00;64805.59;5049488;28;20444;-55
2022/09/29 07:23:28;;;;;;;19.90;4.00;;;;;;;-145.01;100.00;64805.59;5059635;28;20040;-53
2022/09/29 07:25:54;;;;;;;48.65;4.20;;;;;;;-145.01;100.00;64805.59;5049851;28;20033;-54
2022/09/29 07:28:20;;;;;;;95.25;4.90;;;;;;;-145.01;100.00;64805.59;5052977;28;20039;-55
2022/09/29 07:30:45;;;;;;;15.20;3.55;;;;;;;-145.01;100.00;64805.59;5054502;28;20438;-55
2022/09/29 07:33:11;;;;;;;68.85;5.13;;;;;;;-145.01;100.00;64805.59;5051933;28;20028;-54
2022/09/29 07:35:36;;;;;;;14.55;4.32;;;;;;;-145.01;100.00;64805.59;5059292;28;20017;-54
2022/09/29 07:38:02;;;;;;;12.23;4.65;;;;;;;-145.01;100.00;64805.59;5055766;28;20557;-55
2022/09/29 07:40:27;;;;;;;7.28;3.83;;;;;;;-145.01;100.00;64805.59;5049589;28;20391;-55
2022/09/29 07:42:53;;;;;;;15.77;4.05;;;;;;;-145.01;100.00;64805.59;5053716;28;20025;-55
2022/09/29 07:45:19;;;;;;;22.55;5.28;;;;;;;-145.01;100.00;64805.59;5049308;28;20021;-55
2022/09/29 07:47:44;;;;;;;7.38;4.78;;;;;;;-145.01;100.00;64805.59;5061047;28;20024;-54
2022/09/29 07:50:10;;;;;;;6.82;4.50;;;;;;;-145.01;100.00;64805.59;5052951;28;20464;-54
2022/09/29 07:52:36;;;;;;;22.17;4.72;;;;;;;-145.01;100.00;64805.59;5056551;28;20109;-55
2022/09/29 07:55:02;;;;;;;7.53;4.80;;;;;;;-145.01;100.00;64805.59;5058681;28;20017;-54
2022/09/29 07:57:28;;;;;;;18.83;6.18;;;;;;;-145.01;100.00;64805.59;5049021;28;20072;-54
2022/09/29 07:59:56;;;;;;;25.13;5.57;;;;;;;-145.01;100.00;64805.59;5054354;28;20017;-56
2022/09/29 08:02:22;;;;;;;20.08;4.85;;;;;;;-145.01;100.00;64805.59;5053245;28;20028;-54
2022/09/29 08:04:47;;;;;;;9.80;5.13;;;;;;;-145.01;100.00;64805.59;5057337;28;20147;-54
2022/09/29 08:07:14;;;;;;;8.45;5.22;;;;;;;-145.01;100.00;64805.59;5052360;28;20045;-55
2022/09/29 08:09:39;;;;;;;10.57;5.38;;;;;;;-145.01;100.00;64805.59;5047794;28;20248;-56
2022/09/29 08:12:05;;;;;;;9.38;5.78;;;;;;;-145.01;100.00;64805.59;5048941;28;20021;-55
2022/09/29 08:14:30;;;;;;;8.18;5.88;;;;;;;-145.01;100.00;64805.59;5054331;28;20021;-56
2022/09/29 08:16:56;;;;;;;10.10;6.38;;;;;;;-145.01;100.00;64805.59;5048564;28;20033;-55
2022/09/29 08:19:21;;;;;;;11.70;7.10;;;;;;;-145.01;100.00;64805.59;5055230;28;20033;-55
2022/09/29 08:21:48;;;;;;;16.90;9.48;;;;;;;-145.01;100.00;64805.59;5052647;28;20491;-55
2022/09/29 08:24:14;;;;;;;18.27;10.10;;;;;;;-145.01;100.00;64805.59;5049103;28;20559;-53
2022/09/29 08:26:40;;;;;;;19.83;9.52;;;;;;;-145.01;100.00;64805.59;5051588;28;20029;-55
2022/09/29 08:29:05;;;;;;;12.88;9.15;;;;;;;-145.01;100.00;64805.59;5052325;28;20048;-55
2022/09/29 08:31:31;;;;;;;10.10;6.65;;;;;;;-145.01;100.00;64805.59;5051942;28;20037;-55
2022/09/29 08:33:59;;;;;;;10.63;7.13;;;;;;;-145.01;100.00;64805.59;5034100;28;20060;-55
2022/09/29 08:36:25;;;;;;;9.27;6.97;;;;;;;-145.01;100.00;64805.59;5061340;28;20024;-56
2022/09/29 08:38:52;;;;;;;12.90;7.80;;;;;;;-145.01;100.00;64805.59;5046690;28;20025;-55
2022/09/29 08:41:48;;;;;;;14.65;7.75;;;;;;;-145.01;100.00;64805.59;5052614;28;20029;-54
2022/09/29 08:44:35;;;;;;;13.90;8.05;;;;;;;-145.01;100.00;64805.59;5052830;28;20387;-55
2022/09/29 08:47:11;;;;;;;10.30;7.10;;;;;;;-145.01;100.00;64805.59;5052110;28;20031;-54
2022/09/29 08:49:40;;;;;;;13.18;7.70;;;;;;;-145.01;100.00;64805.59;5085893;28;20513;-55
2022/09/29 08:52:10;;;;;;;11.93;7.80;;;;;;;-145.01;100.00;64805.59;5051615;28;20178;-55
2022/09/29 08:54:38;;;;;;;12.18;7.95;;;;;;;-145.01;100.00;64805.59;5033338;28;20491;-55
2022/09/29 08:57:04;;;;;;;11.90;6.80;;;;;;;-145.01;100.00;64805.59;5056048;28;20356;-55
2022/09/29 08:59:30;;;;;;;13.52;8.63;;;;;;;-145.01;100.00;64805.59;5068117;28;20036;-54
2022/09/29 09:02:15;;;;;;;9.57;7.15;;;;;;;-145.01;100.00;64805.59;5033740;28;20029;-55
2022/09/29 09:04:55;;;;;;;8.63;6.13;;;;;;;-145.01;100.00;64805.59;5052163;28;20041;-55
2022/09/29 09:07:41;;;;;;;11.40;6.93;;;;;;;-145.01;100.00;64805.59;5056435;28;20439;-54
2022/09/29 09:10:13;;;;;;;13.13;7.43;;;;;;;-145.01;100.00;64805.59;5053614;28;20035;-54
2022/09/29 09:12:58;;;;;;;14.85;6.57;;;;;;;-145.01;100.00;64805.59;5052892;28;20032;-54
2022/09/29 09:16:06;;;;;;;11.35;6.72;;;;;;;-145.01;100.00;64805.59;5060174;28;20033;-55
2022/09/29 09:18:41;;;;;;;15.90;6.70;;;;;;;-145.01;100.00;64805.59;5057693;28;20044;-56
2022/09/29 09:21:12;;;;;;;14.88;6.63;;;;;;;-145.01;100.00;64805.59;5056371;28;20032;-54
2022/09/29 09:23:47;;;;;;;13.90;6.50;;;;;;;-145.01;100.00;64805.59;5051530;28;20429;-54
2022/09/29 09:26:12;;;;;;;12.30;6.50;;;;;;;-145.01;100.00;64805.59;5051973;28;20033;-54
2022/09/29 09:28:40;;;;;;;9.57;6.05;;;;;;;-145.01;100.00;64805.59;5055079;28;20032;-55
2022/09/29 09:31:21;;;;;;;10.65;6.35;;;;;;;-145.01;100.00;64805.59;5059147;28;20031;-54
2022/09/29 09:34:04;;;;;;;10.05;6.57;;;;;;;-145.01;100.00;64805.59;5057789;28;20114;-54
2022/09/29 09:36:39;;;;;;;13.65;7.05;;;;;;;-145.01;100.00;64805.59;5057149;28;20104;-55
2022/09/29 09:39:15;;;;;;;9.27;6.80;;;;;;;-145.01;100.00;64805.59;5052752;28;20025;-55
2022/09/29 09:41:41;;;;;;;10.60;6.82;;;;;;;-145.01;100.00;64805.59;5058346;28;20725;-54
2022/09/29 09:44:14;;;;;;;12.18;6.93;;;;;;;-145.01;100.00;64805.59;5056843;28;20032;-55
2022/09/29 09:47:04;;;;;;;15.68;7.68;;;;;;;-145.01;100.00;64805.59;5063975;28;20063;-55
2022/09/29 09:49:36;;;;;;;14.70;7.95;;;;;;;-145.01;100.00;64805.59;5057154;28;20156;-55
2022/09/29 09:52:21;;;;;;;20.75;7.38;;;;;;;-145.01;100.00;64805.59;5051128;28;20025;-55
2022/09/29 09:54:50;;;;;;;13.07;7.60;;;;;;;-145.01;100.00;64805.59;5062906;28;20056;-55
2022/09/29 09:57:21;;;;;;;14.85;8.55;;;;;;;-145.01;100.00;64805.59;5046307;28;20949;-55
2022/09/29 09:59:57;;;;;;;15.75;7.70;;;;;;;-145.01;100.00;64805.59;5049892;28;20586;-57
2022/09/29 10:02:23;;;;;;;12.38;7.78;;;;;;;-145.01;100.00;64805.59;5049494;28;20044;-56
2022/09/29 10:04:50;;;;;;;21.90;10.55;;;;;;;-145.01;100.00;64805.59;5055859;28;20044;-57
2022/09/29 10:07:17;;;;;;;10.63;7.10;;;;;;;-145.01;100.00;64805.59;5085404;28;20033;-58
2022/09/29 10:09:42;;;;;;;12.18;6.47;;;;;;;-145.01;100.00;64805.59;5049605;28;20048;-56
2022/09/29 10:12:14;;;;;;;9.88;6.22;;;;;;;-145.01;100.00;64805.59;5057317;28;20048;-56
2022/09/29 10:14:40;;;;;;;9.65;6.68;;;;;;;-145.01;100.00;64805.59;5042524;28;20029;-56
2022/09/29 10:17:09;;;;;;;10.02;6.18;;;;;;;-145.01;100.00;64805.59;5069724;28;20237;-53
2022/09/29 10:20:00;;;;;;;18.80;7.82;;;;;;;-145.01;100.00;64805.59;5059833;28;20475;-55
2022/09/29 10:22:27;;;;;;;11.45;7.18;;;;;;;-145.01;100.00;64805.59;5052417;28;20033;-54
2022/09/29 10:25:14;;;;;;;12.50;8.20;;;;;;;-145.01;100.00;64805.59;5054996;28;20029;-55
2022/09/29 10:27:41;;;;;;;10.60;7.65;;;;;;;-145.01;100.00;64805.59;5049287;28;20120;-51
2022/09/29 10:30:18;;;;;;;14.50;7.95;;;;;;;-145.01;100.00;64805.59;5069433;28;20032;-54
2022/09/29 10:32:44;;;;;;;11.82;7.95;;;;;;;-145.01;100.00;64805.59;5057617;28;20024;-54
2022/09/29 10:35:17;;;;;;;13.45;8.25;;;;;;;-145.01;100.00;64805.59;5056199;28;20353;-56
2022/09/29 10:37:46;;;;;;;14.55;8.82;;;;;;;-145.01;100.00;64805.59;5054270;28;20090;-53
2022/09/29 10:40:17;;;;;;;18.10;9.25;;;;;;;-145.01;100.00;64805.59;5054327;28;20017;-56
2022/09/29 10:42:47;;;;;;;13.10;8.18;;;;;;;-145.01;100.00;64805.59;5050234;28;20548;-56
2022/09/29 10:45:22;;;;;;;17.27;9.55;;;;;;;-145.01;100.00;64805.59;5048526;28;20511;-55
2022/09/29 10:47:57;;;;;;;13.40;8.40;;;;;;;-145.01;100.00;64805.59;5061752;28;20070;-53
2022/09/29 10:50:56;;;;;;;13.75;9.52;;;;;;;-145.01;100.00;64805.59;5049975;28;20021;-56
2022/09/29 10:53:37;;;;;;;14.50;9.00;;;;;;;-145.01;100.00;64805.59;5078775;28;20055;-55
2022/09/29 10:56:20;;;;;;;15.52;8.82;;;;;;;-145.01;100.00;64805.59;5057352;28;20029;-55
2022/09/29 10:58:52;;;;;;;14.43;8.60;;;;;;;-145.01;100.00;64805.59;5055107;28;20076;-55
2022/09/29 11:01:17;;;;;;;13.57;8.68;;;;;;;-145.01;100.00;64805.59;5039577;28;20028;-56
2022/09/29 11:03:52;;;;;;;14.50;8.65;;;;;;;-145.01;100.00;64805.59;5039005;28;20021;-55
2022/09/29 11:06:25;;;;;;;13.05;9.20;;;;;;;-145.01;100.00;64805.59;5049800;28;20174;-54
2022/09/29 11:09:14;;;;;;;14.25;8.50;;;;;;;-145.01;100.00;64805.59;5056468;28;20089;-54
2022/09/29 11:11:52;;;;;;;17.13;9.23;;;;;;;-145.01;100.00;64805.59;5052536;28;20044;-54
2022/09/29 11:14:36;;;;;;;11.25;8.48;;;;;;;-145.01;100.00;64805.59;5073927;28;20282;-55
2022/09/29 11:17:05;;;;;;;12.18;8.70;;;;;;;-145.01;100.00;64805.59;5057463;28;20036;-55